sensor_id;sensor_type;location;lat;lon;timestamp;pressure;altitude;pressure_sealevel;temperature;humidity
77161;BME280;66135;0.000;0.000;2024-02-21T00:00:54;102152.13;;;19.01;63.70
77161;BME280;66135;0.000;0.000;2024-02-21T00:03:20;102133.28;;;19.00;63.86
77161;BME280;66135;0.000;0.000;2024-02-21T00:05:45;102136.25;;;18.97;63.60
77161;BME280;66135;0.000;0.000;2024-02-21T00:08:10;102141.56;;;18.98;63.71
77161;BME280;66135;0.000;0.000;2024-02-21T00:10:36;102140.84;;;18.96;63.68
77161;BME280;66135;0.000;0.000;2024-02-21T00:13:01;102134.72;;;18.94;63.71
77161;BME280;66135;0.000;0.000;2024-02-21T00:15:27;102137.44;;;18.94;63.62
77161;BME280;66135;0.000;0.000;2024-02-21T00:17:53;102134.00;;;18.92;63.73
77161;BME280;66135;0.000;0.000;2024-02-21T00:20:18;102141.44;;;18.90;63.52
77161;BME280;66135;0.000;0.000;2024-02-21T00:22:44;102134.31;;;18.89;63.61
77161;BME280;66135;0.000;0.000;2024-02-21T00:25:09;102137.03;;;18.89;63.71
77161;BME280;66135;0.000;0.000;2024-02-21T00:27:35;102139.19;;;18.86;63.64
77161;BME280;66135;0.000;0.000;2024-02-21T00:30:00;102130.16;;;18.85;63.39
77161;BME280;66135;0.000;0.000;2024-02-21T00:32:26;102133.03;;;18.84;63.48
77161;BME280;66135;0.000;0.000;2024-02-21T00:34:51;102126.75;;;18.83;63.59
77161;BME280;66135;0.000;0.000;2024-02-21T00:37:17;102124.88;;;18.84;63.54
77161;BME280;66135;0.000;0.000;2024-02-21T00:39:42;102113.00;;;18.85;63.47
77161;BME280;66135;0.000;0.000;2024-02-21T00:42:07;102101.31;;;18.84;63.32
77161;BME280;66135;0.000;0.000;2024-02-21T00:44:33;102101.31;;;18.84;63.36
77161;BME280;66135;0.000;0.000;2024-02-21T00:46:58;102107.75;;;18.83;63.33
77161;BME280;66135;0.000;0.000;2024-02-21T00:49:23;102088.72;;;18.83;63.32
77161;BME280;66135;0.000;0.000;2024-02-21T00:51:49;102085.47;;;18.80;63.41
77161;BME280;66135;0.000;0.000;2024-02-21T00:54:14;102076.44;;;18.79;63.48
77161;BME280;66135;0.000;0.000;2024-02-21T00:56:39;102082.91;;;18.78;63.53
77161;BME280;66135;0.000;0.000;2024-02-21T00:59:05;102073.19;;;18.76;63.47
77161;BME280;66135;0.000;0.000;2024-02-21T01:01:30;102067.63;;;18.77;63.49
77161;BME280;66135;0.000;0.000;2024-02-21T01:03:55;102066.06;;;18.75;63.37
77161;BME280;66135;0.000;0.000;2024-02-21T01:06:21;102087.94;;;18.73;63.34
77161;BME280;66135;0.000;0.000;2024-02-21T01:08:46;102081.63;;;18.73;63.37
77161;BME280;66135;0.000;0.000;2024-02-21T01:11:13;102085.38;;;18.72;63.29
77161;BME280;66135;0.000;0.000;2024-02-21T01:13:38;102077.22;;;18.72;63.42
77161;BME280;66135;0.000;0.000;2024-02-21T01:16:04;102078.22;;;18.71;63.29
77161;BME280;66135;0.000;0.000;2024-02-21T01:18:31;102074.81;;;18.69;63.34
77161;BME280;66135;0.000;0.000;2024-02-21T01:20:57;102063.09;;;18.68;63.35
77161;BME280;66135;0.000;0.000;2024-02-21T01:23:22;102064.06;;;18.67;63.34
77161;BME280;66135;0.000;0.000;2024-02-21T01:25:47;102046.25;;;18.65;63.53
77161;BME280;66135;0.000;0.000;2024-02-21T01:28:13;102035.94;;;18.68;63.30
77161;BME280;66135;0.000;0.000;2024-02-21T01:30:38;102042.25;;;18.69;63.45
77161;BME280;66135;0.000;0.000;2024-02-21T01:33:03;102045.50;;;18.72;63.34
77161;BME280;66135;0.000;0.000;2024-02-21T01:35:29;102048.50;;;18.69;63.14
77161;BME280;66135;0.000;0.000;2024-02-21T01:37:54;102045.78;;;18.69;63.23
77161;BME280;66135;0.000;0.000;2024-02-21T01:40:19;102041.69;;;18.65;63.37
77161;BME280;66135;0.000;0.000;2024-02-21T01:42:45;102036.25;;;18.65;63.27
77161;BME280;66135;0.000;0.000;2024-02-21T01:45:11;102040.09;;;18.63;63.44
77161;BME280;66135;0.000;0.000;2024-02-21T01:47:36;102033.53;;;18.65;63.29
77161;BME280;66135;0.000;0.000;2024-02-21T01:50:02;102030.53;;;18.68;63.19
77161;BME280;66135;0.000;0.000;2024-02-21T01:52:29;102035.25;;;18.66;63.18
77161;BME280;66135;0.000;0.000;2024-02-21T01:54:56;102029.81;;;18.66;62.92
77161;BME280;66135;0.000;0.000;2024-02-21T01:57:22;102027.97;;;18.67;63.06
77161;BME280;66135;0.000;0.000;2024-02-21T01:59:48;102030.53;;;18.68;63.00
77161;BME280;66135;0.000;0.000;2024-02-21T02:02:13;102041.69;;;18.65;63.02
77161;BME280;66135;0.000;0.000;2024-02-21T02:04:39;102038.25;;;18.63;63.18
77161;BME280;66135;0.000;0.000;2024-02-21T02:07:06;102031.97;;;18.63;62.73
77161;BME280;66135;0.000;0.000;2024-02-21T02:09:32;102033.00;;;18.62;63.01
77161;BME280;66135;0.000;0.000;2024-02-21T02:11:57;102027.41;;;18.63;63.06
77161;BME280;66135;0.000;0.000;2024-02-21T02:14:25;102030.28;;;18.62;63.09
77161;BME280;66135;0.000;0.000;2024-02-21T02:16:50;102013.28;;;18.60;62.87
77161;BME280;66135;0.000;0.000;2024-02-21T02:19:16;102013.28;;;18.60;63.13
77161;BME280;66135;0.000;0.000;2024-02-21T02:21:46;102018.16;;;18.56;63.21
77161;BME280;66135;0.000;0.000;2024-02-21T02:24:19;102006.28;;;18.57;62.96
77161;BME280;66135;0.000;0.000;2024-02-21T02:26:44;102004.59;;;18.56;63.13
77161;BME280;66135;0.000;0.000;2024-02-21T02:29:10;102003.72;;;18.56;62.85
77161;BME280;66135;0.000;0.000;2024-02-21T02:31:36;101993.00;;;18.54;62.99
77161;BME280;66135;0.000;0.000;2024-02-21T02:34:03;101989.28;;;18.55;63.06
77161;BME280;66135;0.000;0.000;2024-02-21T02:36:28;101976.72;;;18.54;63.10
77161;BME280;66135;0.000;0.000;2024-02-21T02:38:53;101972.28;;;18.53;62.92
77161;BME280;66135;0.000;0.000;2024-02-21T02:41:19;101970.44;;;18.54;62.91
77161;BME280;66135;0.000;0.000;2024-02-21T02:43:44;101979.59;;;18.53;63.22
77161;BME280;66135;0.000;0.000;2024-02-21T02:46:09;101975.31;;;18.50;62.98
77161;BME280;66135;0.000;0.000;2024-02-21T02:48:35;101971.06;;;18.48;63.08
77161;BME280;66135;0.000;0.000;2024-02-21T02:51:00;101972.75;;;18.49;63.02
77161;BME280;66135;0.000;0.000;2024-02-21T02:53:25;101962.91;;;18.48;63.17
77161;BME280;66135;0.000;0.000;2024-02-21T02:55:51;101951.91;;;18.49;63.05
77161;BME280;66135;0.000;0.000;2024-02-21T02:58:16;101956.63;;;18.47;63.05
77161;BME280;66135;0.000;0.000;2024-02-21T03:00:41;101954.78;;;18.48;63.13
77161;BME280;66135;0.000;0.000;2024-02-21T03:03:07;101952.19;;;18.46;62.91
77161;BME280;66135;0.000;0.000;2024-02-21T03:05:33;101941.66;;;18.43;63.04
77161;BME280;66135;0.000;0.000;2024-02-21T03:07:59;101945.22;;;18.44;63.02
77161;BME280;66135;0.000;0.000;2024-02-21T03:10:24;101937.25;;;18.42;63.34
77161;BME280;66135;0.000;0.000;2024-02-21T03:12:50;101940.81;;;18.43;63.25
77161;BME280;66135;0.000;0.000;2024-02-21T03:15:18;101949.06;;;18.41;63.26
77161;BME280;66135;0.000;0.000;2024-02-21T03:17:43;101950.97;;;18.41;63.18
77161;BME280;66135;0.000;0.000;2024-02-21T03:20:09;101954.50;;;18.41;63.22
77161;BME280;66135;0.000;0.000;2024-02-21T03:22:35;101933.81;;;18.40;63.07
77161;BME280;66135;0.000;0.000;2024-02-21T03:25:00;101931.09;;;18.40;63.24
77161;BME280;66135;0.000;0.000;2024-02-21T03:27:26;101926.78;;;18.38;62.90
77161;BME280;66135;0.000;0.000;2024-02-21T03:29:51;101926.78;;;18.38;63.09
77161;BME280;66135;0.000;0.000;2024-02-21T03:32:17;101917.81;;;18.37;63.03
77161;BME280;66135;0.000;0.000;2024-02-21T03:34:42;101925.09;;;18.37;63.32
77161;BME280;66135;0.000;0.000;2024-02-21T03:37:08;101916.25;;;18.35;63.17
77161;BME280;66135;0.000;0.000;2024-02-21T03:39:33;101912.00;;;18.32;63.26
77161;BME280;66135;0.000;0.000;2024-02-21T03:41:59;101899.41;;;18.31;63.24
77161;BME280;66135;0.000;0.000;2024-02-21T03:44:30;101898.44;;;18.32;63.21
77161;BME280;66135;0.000;0.000;2024-02-21T03:46:56;101891.28;;;18.31;62.98
77161;BME280;66135;0.000;0.000;2024-02-21T03:49:21;101885.00;;;18.31;63.04
77161;BME280;66135;0.000;0.000;2024-02-21T03:51:47;101885.84;;;18.31;63.05
77161;BME280;66135;0.000;0.000;2024-02-21T03:54:12;101879.56;;;18.31;62.96
77161;BME280;66135;0.000;0.000;2024-02-21T03:56:38;101884.16;;;18.30;63.25
77161;BME280;66135;0.000;0.000;2024-02-21T03:59:07;101876.16;;;18.29;63.09
77161;BME280;66135;0.000;0.000;2024-02-21T04:01:34;101878.88;;;18.29;63.20
77161;BME280;66135;0.000;0.000;2024-02-21T04:03:59;101880.88;;;18.27;63.01
77161;BME280;66135;0.000;0.000;2024-02-21T04:06:24;101875.47;;;18.27;63.12
77161;BME280;66135;0.000;0.000;2024-02-21T04:08:50;101880.03;;;18.26;63.04
77161;BME280;66135;0.000;0.000;2024-02-21T04:11:15;101880.19;;;18.25;63.34
77161;BME280;66135;0.000;0.000;2024-02-21T04:13:42;101882.91;;;18.25;63.08
77161;BME280;66135;0.000;0.000;2024-02-21T04:16:08;101884.59;;;18.26;63.19
77161;BME280;66135;0.000;0.000;2024-02-21T04:18:33;101883.06;;;18.23;63.13
77161;BME280;66135;0.000;0.000;2024-02-21T04:20:59;101874.22;;;18.21;62.95
77161;BME280;66135;0.000;0.000;2024-02-21T04:23:24;101879.63;;;18.21;63.21
77161;BME280;66135;0.000;0.000;2024-02-21T04:25:49;101890.47;;;18.21;63.25
77161;BME280;66135;0.000;0.000;2024-02-21T04:28:15;101876.22;;;18.19;63.61
77161;BME280;66135;0.000;0.000;2024-02-21T04:30:40;101878.75;;;18.21;63.34
77161;BME280;66135;0.000;0.000;2024-02-21T04:33:05;101874.50;;;18.18;63.29
77161;BME280;66135;0.000;0.000;2024-02-21T04:35:31;101873.81;;;18.16;63.06
77161;BME280;66135;0.000;0.000;2024-02-21T04:37:56;101881.94;;;18.16;63.42
77161;BME280;66135;0.000;0.000;2024-02-21T04:40:22;101884.66;;;18.16;63.16
77161;BME280;66135;0.000;0.000;2024-02-21T04:42:47;101879.38;;;18.15;63.37
77161;BME280;66135;0.000;0.000;2024-02-21T04:45:13;101880.38;;;18.14;63.16
77161;BME280;66135;0.000;0.000;2024-02-21T04:47:38;101866.81;;;18.14;63.22
77161;BME280;66135;0.000;0.000;2024-02-21T04:50:04;101875.97;;;18.13;63.48
77161;BME280;66135;0.000;0.000;2024-02-21T04:52:29;101873.41;;;18.11;63.19
77161;BME280;66135;0.000;0.000;2024-02-21T04:54:55;101882.25;;;18.13;63.34
77161;BME280;66135;0.000;0.000;2024-02-21T04:57:20;101875.09;;;18.12;63.26
77161;BME280;66135;0.000;0.000;2024-02-21T04:59:46;101874.38;;;18.10;63.52
77161;BME280;66135;0.000;0.000;2024-02-21T05:02:14;101855.56;;;18.09;63.23
77161;BME280;66135;0.000;0.000;2024-02-21T05:04:39;101860.13;;;18.08;63.63
77161;BME280;66135;0.000;0.000;2024-02-21T05:07:06;101858.59;;;18.06;63.46
77161;BME280;66135;0.000;0.000;2024-02-21T05:09:32;101850.44;;;18.06;63.36
77161;BME280;66135;0.000;0.000;2024-02-21T05:11:57;101848.59;;;18.06;63.52
77161;BME280;66135;0.000;0.000;2024-02-21T05:14:24;101852.13;;;18.07;63.29
77161;BME280;66135;0.000;0.000;2024-02-21T05:16:50;101852.13;;;18.07;63.45
77161;BME280;66135;0.000;0.000;2024-02-21T05:19:15;101845.88;;;18.06;63.48
77161;BME280;66135;0.000;0.000;2024-02-21T05:21:40;101845.72;;;18.08;63.40
77161;BME280;66135;0.000;0.000;2024-02-21T05:24:06;101837.75;;;18.06;63.37
77161;BME280;66135;0.000;0.000;2024-02-21T05:26:31;101838.75;;;18.05;63.44
77161;BME280;66135;0.000;0.000;2024-02-21T05:28:57;101828.75;;;18.06;63.41
77161;BME280;66135;0.000;0.000;2024-02-21T05:31:24;101821.75;;;18.03;63.67
77161;BME280;66135;0.000;0.000;2024-02-21T05:33:49;101825.50;;;18.02;63.57
77161;BME280;66135;0.000;0.000;2024-02-21T05:36:15;101812.09;;;18.01;63.81
77161;BME280;66135;0.000;0.000;2024-02-21T05:38:40;101812.25;;;17.99;63.74
77161;BME280;66135;0.000;0.000;2024-02-21T05:41:06;101804.13;;;17.99;63.43
77161;BME280;66135;0.000;0.000;2024-02-21T05:43:31;101802.38;;;17.98;63.82
77161;BME280;66135;0.000;0.000;2024-02-21T05:45:57;101800.84;;;17.95;63.60
77161;BME280;66135;0.000;0.000;2024-02-21T05:48:23;101806.28;;;17.95;63.68
77161;BME280;66135;0.000;0.000;2024-02-21T05:50:48;101793.38;;;17.97;63.63
77161;BME280;66135;0.000;0.000;2024-02-21T05:53:14;101788.28;;;17.94;63.80
77161;BME280;66135;0.000;0.000;2024-02-21T05:55:40;101786.59;;;17.93;63.53
77161;BME280;66135;0.000;0.000;2024-02-21T05:58:06;101780.47;;;17.91;63.64
77161;BME280;66135;0.000;0.000;2024-02-21T06:00:32;101779.59;;;17.91;63.92
77161;BME280;66135;0.000;0.000;2024-02-21T06:02:57;101785.72;;;17.93;63.87
77161;BME280;66135;0.000;0.000;2024-02-21T06:05:23;101779.59;;;17.91;63.85
77161;BME280;66135;0.000;0.000;2024-02-21T06:07:48;101779.59;;;17.91;63.63
77161;BME280;66135;0.000;0.000;2024-02-21T06:10:13;101767.06;;;17.90;63.98
77161;BME280;66135;0.000;0.000;2024-02-21T06:12:39;101764.34;;;17.90;63.76
77161;BME280;66135;0.000;0.000;2024-02-21T06:15:05;101754.50;;;17.89;63.75
77161;BME280;66135;0.000;0.000;2024-02-21T06:17:30;101765.50;;;17.87;63.79
77161;BME280;66135;0.000;0.000;2024-02-21T06:19:55;101744.81;;;17.86;63.87
77161;BME280;66135;0.000;0.000;2024-02-21T06:22:21;101744.66;;;17.88;63.74
77161;BME280;66135;0.000;0.000;2024-02-21T06:24:46;101752.09;;;17.86;63.77
77161;BME280;66135;0.000;0.000;2024-02-21T06:27:11;101748.53;;;17.85;63.63
77161;BME280;66135;0.000;0.000;2024-02-21T06:29:37;101756.66;;;17.85;64.01
77161;BME280;66135;0.000;0.000;2024-02-21T06:32:03;101753.38;;;17.82;63.62
77161;BME280;66135;0.000;0.000;2024-02-21T06:34:28;101746.28;;;17.81;63.67
77161;BME280;66135;0.000;0.000;2024-02-21T06:36:54;101754.97;;;17.84;64.08
77161;BME280;66135;0.000;0.000;2024-02-21T06:39:19;101751.38;;;17.84;63.78
77161;BME280;66135;0.000;0.000;2024-02-21T06:41:45;101753.94;;;17.85;63.66
77161;BME280;66135;0.000;0.000;2024-02-21T06:44:10;101755.66;;;17.86;63.74
77161;BME280;66135;0.000;0.000;2024-02-21T06:46:36;101758.53;;;17.85;63.87
77161;BME280;66135;0.000;0.000;2024-02-21T06:49:02;101749.00;;;17.81;63.88
77161;BME280;66135;0.000;0.000;2024-02-21T06:51:29;101758.81;;;17.82;63.96
77161;BME280;66135;0.000;0.000;2024-02-21T06:53:54;101758.25;;;17.78;63.84
77161;BME280;66135;0.000;0.000;2024-02-21T06:56:20;101761.69;;;17.80;63.73
77161;BME280;66135;0.000;0.000;2024-02-21T06:58:45;101760.84;;;17.80;63.67
77161;BME280;66135;0.000;0.000;2024-02-21T07:01:11;101767.97;;;17.81;63.66
77161;BME280;66135;0.000;0.000;2024-02-21T07:03:37;101754.72;;;17.78;63.59
77161;BME280;66135;0.000;0.000;2024-02-21T07:06:02;101759.13;;;17.79;63.64
77161;BME280;66135;0.000;0.000;2024-02-21T07:08:28;101754.72;;;17.78;63.77
77161;BME280;66135;0.000;0.000;2024-02-21T07:10:53;101753.69;;;17.79;63.62
77161;BME280;66135;0.000;0.000;2024-02-21T07:13:19;101746.13;;;17.82;63.55
77161;BME280;66135;0.000;0.000;2024-02-21T07:15:45;101740.69;;;17.82;63.37
77161;BME280;66135;0.000;0.000;2024-02-21T07:18:11;101735.28;;;17.82;63.45
77161;BME280;66135;0.000;0.000;2024-02-21T07:20:36;101729.53;;;17.85;63.30
77161;BME280;66135;0.000;0.000;2024-02-21T07:23:02;101732.09;;;17.87;63.40
77161;BME280;66135;0.000;0.000;2024-02-21T07:25:28;101737.09;;;17.91;63.12
77161;BME280;66135;0.000;0.000;2024-02-21T07:27:53;101733.06;;;17.95;63.15
77161;BME280;66135;0.000;0.000;2024-02-21T07:30:18;101728.03;;;18.01;62.76
77161;BME280;66135;0.000;0.000;2024-02-21T07:32:44;101727.88;;;18.02;62.71
77161;BME280;66135;0.000;0.000;2024-02-21T07:35:09;101719.44;;;18.05;62.98
77161;BME280;66135;0.000;0.000;2024-02-21T07:37:38;101716.56;;;18.07;63.08
77161;BME280;66135;0.000;0.000;2024-02-21T07:40:06;101701.88;;;18.09;63.13
77161;BME280;66135;0.000;0.000;2024-02-21T07:42:31;101714.25;;;18.12;63.21
77161;BME280;66135;0.000;0.000;2024-02-21T07:44:57;101704.97;;;18.14;63.28
77161;BME280;66135;0.000;0.000;2024-02-21T07:47:22;101706.66;;;18.15;63.28
77161;BME280;66135;0.000;0.000;2024-02-21T07:49:48;101698.38;;;18.17;63.52
77161;BME280;66135;0.000;0.000;2024-02-21T07:52:14;101689.94;;;18.20;63.55
77161;BME280;66135;0.000;0.000;2024-02-21T07:54:40;101681.66;;;18.21;63.55
77161;BME280;66135;0.000;0.000;2024-02-21T07:57:06;101679.47;;;18.25;63.53
77161;BME280;66135;0.000;0.000;2024-02-21T07:59:32;101673.91;;;18.26;63.37
77161;BME280;66135;0.000;0.000;2024-02-21T08:01:57;101670.31;;;18.26;63.58
77161;BME280;66135;0.000;0.000;2024-02-21T08:04:23;101669.31;;;18.27;63.72
77161;BME280;66135;0.000;0.000;2024-02-21T08:06:54;101673.56;;;18.29;63.70
77161;BME280;66135;0.000;0.000;2024-02-21T08:09:24;101672.59;;;18.30;63.47
77161;BME280;66135;0.000;0.000;2024-02-21T08:11:49;101677.53;;;18.35;63.63
77161;BME280;66135;0.000;0.000;2024-02-21T08:14:14;101659.41;;;18.35;63.82
77161;BME280;66135;0.000;0.000;2024-02-21T08:16:42;101655.66;;;18.36;63.67
77161;BME280;66135;0.000;0.000;2024-02-21T08:19:07;101649.09;;;18.39;63.58
77161;BME280;66135;0.000;0.000;2024-02-21T08:21:32;101638.97;;;18.41;63.63
77161;BME280;66135;0.000;0.000;2024-02-21T08:23:58;101640.81;;;18.40;63.46
77161;BME280;66135;0.000;0.000;2024-02-21T08:26:23;101639.81;;;18.41;63.94
77161;BME280;66135;0.000;0.000;2024-02-21T08:28:48;101637.78;;;18.43;64.01
77161;BME280;66135;0.000;0.000;2024-02-21T08:31:20;101625.09;;;18.44;63.99
77161;BME280;66135;0.000;0.000;2024-02-21T08:33:46;101618.63;;;18.45;63.87
77161;BME280;66135;0.000;0.000;2024-02-21T08:36:18;101624.06;;;18.45;63.67
77161;BME280;66135;0.000;0.000;2024-02-21T08:38:45;101617.63;;;18.46;63.89
77161;BME280;66135;0.000;0.000;2024-02-21T08:41:10;101610.31;;;18.46;63.70
77161;BME280;66135;0.000;0.000;2024-02-21T08:43:35;101617.47;;;18.47;63.81
77161;BME280;66135;0.000;0.000;2024-02-21T08:46:01;101611.19;;;18.47;63.91
77161;BME280;66135;0.000;0.000;2024-02-21T08:48:26;101610.19;;;18.48;63.93
77161;BME280;66135;0.000;0.000;2024-02-21T08:50:52;101612.75;;;18.49;63.88
77161;BME280;66135;0.000;0.000;2024-02-21T08:53:17;101610.88;;;18.50;63.55
77161;BME280;66135;0.000;0.000;2024-02-21T08:55:42;101602.88;;;18.48;63.49
77161;BME280;66135;0.000;0.000;2024-02-21T08:58:09;101601.91;;;18.49;63.73
77161;BME280;66135;0.000;0.000;2024-02-21T09:00:35;101580.03;;;18.51;63.48
77161;BME280;66135;0.000;0.000;2024-02-21T09:03:00;101573.75;;;18.50;63.57
77161;BME280;66135;0.000;0.000;2024-02-21T09:05:25;101581.03;;;18.50;63.54
77161;BME280;66135;0.000;0.000;2024-02-21T09:07:51;101568.31;;;18.50;63.51
77161;BME280;66135;0.000;0.000;2024-02-21T09:10:17;101577.31;;;18.51;63.37
77161;BME280;66135;0.000;0.000;2024-02-21T09:12:42;101577.16;;;18.52;63.44
77161;BME280;66135;0.000;0.000;2024-02-21T09:15:09;101571.72;;;18.52;63.62
77161;BME280;66135;0.000;0.000;2024-02-21T09:17:34;101560.88;;;18.52;63.54
77161;BME280;66135;0.000;0.000;2024-02-21T09:19:59;101574.44;;;18.52;63.39
77161;BME280;66135;0.000;0.000;2024-02-21T09:22:28;101559.03;;;18.53;63.23
77161;BME280;66135;0.000;0.000;2024-02-21T09:24:53;101565.28;;;18.53;63.25
77161;BME280;66135;0.000;0.000;2024-02-21T09:27:19;101559.84;;;18.53;63.22
77161;BME280;66135;0.000;0.000;2024-02-21T09:29:44;101559.84;;;18.53;63.38
77161;BME280;66135;0.000;0.000;2024-02-21T09:32:09;101559.84;;;18.53;63.42
77161;BME280;66135;0.000;0.000;2024-02-21T09:34:35;101554.41;;;18.53;63.41
77161;BME280;66135;0.000;0.000;2024-02-21T09:37:00;101559.03;;;18.53;63.24
77161;BME280;66135;0.000;0.000;2024-02-21T09:39:26;101551.72;;;18.53;63.09
77161;BME280;66135;0.000;0.000;2024-02-21T09:41:57;101539.88;;;18.54;63.19
77161;BME280;66135;0.000;0.000;2024-02-21T09:44:24;101530.84;;;18.54;63.40
77161;BME280;66135;0.000;0.000;2024-02-21T09:47:00;101534.44;;;18.54;63.20
77161;BME280;66135;0.000;0.000;2024-02-21T09:49:32;101518.16;;;18.54;63.35
77161;BME280;66135;0.000;0.000;2024-02-21T09:52:00;101510.00;;;18.54;63.33
77161;BME280;66135;0.000;0.000;2024-02-21T09:54:28;101503.56;;;18.55;63.17
77161;BME280;66135;0.000;0.000;2024-02-21T09:56:54;101504.75;;;18.53;63.22
77161;BME280;66135;0.000;0.000;2024-02-21T09:59:20;101497.59;;;18.52;63.47
77161;BME280;66135;0.000;0.000;2024-02-21T10:01:46;101489.31;;;18.53;63.33
77161;BME280;66135;0.000;0.000;2024-02-21T10:04:15;101471.16;;;18.54;63.26
77161;BME280;66135;0.000;0.000;2024-02-21T10:06:41;101474.91;;;18.53;63.54
77161;BME280;66135;0.000;0.000;2024-02-21T10:09:06;101470.31;;;18.53;63.30
77161;BME280;66135;0.000;0.000;2024-02-21T10:11:32;101466.44;;;18.56;63.36
77161;BME280;66135;0.000;0.000;2024-02-21T10:14:05;101458.28;;;18.56;63.34
77161;BME280;66135;0.000;0.000;2024-02-21T10:16:31;101450.31;;;18.54;63.31
77161;BME280;66135;0.000;0.000;2024-02-21T10:18:56;101439.47;;;18.54;63.25
77161;BME280;66135;0.000;0.000;2024-02-21T10:21:22;101443.88;;;18.55;63.28
77161;BME280;66135;0.000;0.000;2024-02-21T10:23:51;101423.88;;;18.56;63.45
77161;BME280;66135;0.000;0.000;2024-02-21T10:26:18;101422.16;;;18.55;63.43
77161;BME280;66135;0.000;0.000;2024-02-21T10:28:45;101404.03;;;18.56;63.29
77161;BME280;66135;0.000;0.000;2024-02-21T10:31:21;101403.84;;;18.57;63.22
77161;BME280;66135;0.000;0.000;2024-02-21T10:33:58;101395.72;;;18.57;63.42
77161;BME280;66135;0.000;0.000;2024-02-21T10:36:24;101383.19;;;18.56;63.27
77161;BME280;66135;0.000;0.000;2024-02-21T10:38:50;101369.78;;;18.55;62.99
77161;BME280;66135;0.000;0.000;2024-02-21T10:41:16;101361.31;;;18.58;62.75
77161;BME280;66135;0.000;0.000;2024-02-21T10:43:49;101348.59;;;18.58;62.74
77161;BME280;66135;0.000;0.000;2024-02-21T10:46:21;101327.03;;;18.57;63.00
77161;BME280;66135;0.000;0.000;2024-02-21T10:48:48;101326.38;;;18.55;62.96
77161;BME280;66135;0.000;0.000;2024-02-21T10:51:22;101330.78;;;18.56;62.94
77161;BME280;66135;0.000;0.000;2024-02-21T10:56:30;101327.88;;;18.57;63.10
77161;BME280;66135;0.000;0.000;2024-02-21T10:59:03;101322.28;;;18.59;63.03
77161;BME280;66135;0.000;0.000;2024-02-21T11:01:29;101331.97;;;18.61;63.25
77161;BME280;66135;0.000;0.000;2024-02-21T11:03:59;101332.84;;;18.62;63.19
77161;BME280;66135;0.000;0.000;2024-02-21T11:06:26;101341.78;;;18.62;63.03
77161;BME280;66135;0.000;0.000;2024-02-21T11:09:03;101340.81;;;18.63;63.02
77161;BME280;66135;0.000;0.000;2024-02-21T11:11:35;101325.50;;;18.62;63.24
77161;BME280;66135;0.000;0.000;2024-02-21T11:16:36;101340.97;;;18.62;63.12
77161;BME280;66135;0.000;0.000;2024-02-21T11:19:27;101319.41;;;18.60;63.11
77161;BME280;66135;0.000;0.000;2024-02-21T11:21:55;101305.84;;;18.60;63.32
77161;BME280;66135;0.000;0.000;2024-02-21T11:24:32;101291.97;;;18.63;63.41
77161;BME280;66135;0.000;0.000;2024-02-21T11:27:21;101301.59;;;18.66;63.33
77161;BME280;66135;0.000;0.000;2024-02-21T11:30:05;101289.94;;;18.65;63.24
77161;BME280;66135;0.000;0.000;2024-02-21T11:32:31;101274.31;;;18.67;63.17
77161;BME280;66135;0.000;0.000;2024-02-21T11:35:01;101245.31;;;18.68;63.23
77161;BME280;66135;0.000;0.000;2024-02-21T11:37:31;101244.31;;;18.69;62.86
77161;BME280;66135;0.000;0.000;2024-02-21T11:40:02;101256.00;;;18.69;62.89
77161;BME280;66135;0.000;0.000;2024-02-21T11:42:29;101253.09;;;18.71;63.17
77161;BME280;66135;0.000;0.000;2024-02-21T11:44:56;101251.41;;;18.70;63.16
77161;BME280;66135;0.000;0.000;2024-02-21T11:47:22;101250.56;;;18.69;63.22
77161;BME280;66135;0.000;0.000;2024-02-21T11:49:48;101249.56;;;18.70;63.40
77161;BME280;66135;0.000;0.000;2024-02-21T11:52:25;101244.44;;;18.67;63.63
77161;BME280;66135;0.000;0.000;2024-02-21T11:54:51;101223.78;;;18.66;63.63
77161;BME280;66135;0.000;0.000;2024-02-21T11:57:18;101220.72;;;18.69;63.34
77161;BME280;66135;0.000;0.000;2024-02-21T11:59:47;101184.59;;;18.69;63.22
77161;BME280;66135;0.000;0.000;2024-02-21T12:02:14;101201.53;;;18.71;63.43
77161;BME280;66135;0.000;0.000;2024-02-21T12:04:39;101176.13;;;18.72;63.29
77161;BME280;66135;0.000;0.000;2024-02-21T12:07:05;101156.09;;;18.73;63.14
77161;BME280;66135;0.000;0.000;2024-02-21T12:09:31;101169.66;;;18.73;63.47
77161;BME280;66135;0.000;0.000;2024-02-21T12:11:58;101169.66;;;18.73;63.37
77161;BME280;66135;0.000;0.000;2024-02-21T12:14:25;101155.91;;;18.74;63.28
77161;BME280;66135;0.000;0.000;2024-02-21T12:16:50;101140.31;;;18.76;63.27
77161;BME280;66135;0.000;0.000;2024-02-21T12:19:16;101152.19;;;18.75;63.32
77161;BME280;66135;0.000;0.000;2024-02-21T12:21:42;101131.31;;;18.76;63.35
77161;BME280;66135;0.000;0.000;2024-02-21T12:24:23;101119.63;;;18.75;63.34
77161;BME280;66135;0.000;0.000;2024-02-21T12:26:52;101109.59;;;18.76;63.48
77161;BME280;66135;0.000;0.000;2024-02-21T12:29:19;101107.75;;;18.76;63.35
77161;BME280;66135;0.000;0.000;2024-02-21T12:31:45;101108.78;;;18.75;63.42
77161;BME280;66135;0.000;0.000;2024-02-21T12:34:10;101108.78;;;18.75;63.43
77161;BME280;66135;0.000;0.000;2024-02-21T12:36:41;101100.63;;;18.75;63.52
77161;BME280;66135;0.000;0.000;2024-02-21T12:39:07;101089.78;;;18.75;63.43
77161;BME280;66135;0.000;0.000;2024-02-21T12:41:33;101099.09;;;18.73;63.54
77161;BME280;66135;0.000;0.000;2024-02-21T12:44:00;101082.81;;;18.73;63.54
77161;BME280;66135;0.000;0.000;2024-02-21T12:46:25;101063.81;;;18.73;63.57
77161;BME280;66135;0.000;0.000;2024-02-21T12:48:51;101065.69;;;18.72;63.63
77161;BME280;66135;0.000;0.000;2024-02-21T12:51:16;101049.56;;;18.71;63.58
77161;BME280;66135;0.000;0.000;2024-02-21T12:53:47;101046.03;;;18.70;63.70
77161;BME280;66135;0.000;0.000;2024-02-21T12:56:12;101050.59;;;18.70;63.52
77161;BME280;66135;0.000;0.000;2024-02-21T12:58:37;101015.31;;;18.70;63.35
77161;BME280;66135;0.000;0.000;2024-02-21T13:01:03;101011.56;;;18.71;63.49